Time;durP1;ratioP1;P1;durP2;ratioP2;P2;SDS_P1;SDS_P2;PMS_P1;PMS_P2;Temp;Humidity;BMP_temperature;BMP_pressure;BME280_temperature;BME280_humidity;BME280_pressure;Samples;Min_cycle;Max_cycle;Signal;HPM_P1;HPM_P2
2023/05/10 00:01:59;;;;;;;5.70;4.05;;;;;;;;;;5015165;28;20460;-61
2023/05/10 00:04:27;;;;;;;4.68;3.97;;;;;;;;;;5015308;28;20061;-61
2023/05/10 00:06:52;;;;;;;4.28;3.72;;;;;;;;;;5015175;28;20450;-62
2023/05/10 00:09:18;;;;;;;4.20;3.80;;;;;;;;;;5015048;28;20120;-61
2023/05/10 00:11:43;;;;;;;9.05;3.72;;;;;;;;;;5014690;28;20030;-60
2023/05/10 00:14:08;;;;;;;5.65;3.85;;;;;;;;;;5014937;28;20080;-60
2023/05/10 00:16:34;;;;;;;8.73;3.50;;;;;;;;;;5014580;28;20101;-60
2023/05/10 00:18:59;;;;;;;5.63;4.30;;;;;;;;;;5014629;28;20030;-61
2023/05/10 00:21:24;;;;;;;6.45;3.85;;;;;;;;;;5014550;28;20033;-61
2023/05/10 00:23:50;;;;;;;4.70;4.13;;;;;;;;;;5014792;28;20033;-61
2023/05/10 00:26:16;;;;;;;4.40;3.95;;;;;;;;;;4997013;28;20037;-61
2023/05/10 00:28:44;;;;;;;4.80;3.90;;;;;;;;;;4997014;28;20080;-61
2023/05/10 00:31:09;;;;;;;4.32;3.92;;;;;;;;;;4996819;28;20034;-61
2023/05/10 00:33:34;;;;;;;4.30;3.70;;;;;;;;;;5014335;28;20029;-61
2023/05/10 00:36:00;;;;;;;5.60;4.10;;;;;;;;;;5014113;28;20098;-60
2023/05/10 00:38:25;;;;;;;5.32;3.83;;;;;;;;;;5014478;28;20033;-60
2023/05/10 00:40:50;;;;;;;6.97;3.83;;;;;;;;;;5014436;28;20076;-59
2023/05/10 00:43:24;;;;;;;5.78;3.95;;;;;;;;;;4996728;28;20033;-60
2023/05/10 00:45:49;;;;;;;5.25;4.28;;;;;;;;;;5014461;28;20034;-59
2023/05/10 00:48:14;;;;;;;6.82;3.78;;;;;;;;;;4996616;28;20139;-59
2023/05/10 00:50:40;;;;;;;6.45;4.15;;;;;;;;;;5014271;28;20045;-60
2023/05/10 00:53:05;;;;;;;5.90;3.58;;;;;;;;;;4996472;28;20034;-60
2023/05/10 00:55:31;;;;;;;5.03;4.05;;;;;;;;;;5014357;28;20026;-60
2023/05/10 00:57:57;;;;;;;5.93;4.25;;;;;;;;;;4996789;28;20117;-60
2023/05/10 01:00:22;;;;;;;5.10;3.88;;;;;;;;;;5014339;28;20121;-60
2023/05/10 01:02:49;;;;;;;5.35;4.03;;;;;;;;;;5013891;28;20018;-61
2023/05/10 01:05:14;;;;;;;8.93;4.22;;;;;;;;;;5014129;28;20062;-60
2023/05/10 01:07:40;;;;;;;6.93;4.20;;;;;;;;;;5014316;28;20061;-59
2023/05/10 01:10:06;;;;;;;4.70;4.07;;;;;;;;;;4996661;28;20068;-64
2023/05/10 01:12:33;;;;;;;4.10;3.80;;;;;;;;;;4996484;28;20026;-64
2023/05/10 01:14:59;;;;;;;5.60;3.88;;;;;;;;;;4996758;28;20117;-65
2023/05/10 01:17:25;;;;;;;7.90;4.20;;;;;;;;;;5014007;28;20017;-65
2023/05/10 01:19:51;;;;;;;6.05;3.97;;;;;;;;;;4996715;28;20492;-65
2023/05/10 01:22:16;;;;;;;9.15;4.00;;;;;;;;;;4996452;28;20029;-65
2023/05/10 01:24:44;;;;;;;4.93;4.20;;;;;;;;;;5013961;28;20093;-65
2023/05/10 01:27:36;;;;;;;5.53;4.32;;;;;;;;;;4996584;28;20080;-65
2023/05/10 01:30:16;;;;;;;5.72;4.40;;;;;;;;;;5013914;28;20436;-65
2023/05/10 01:32:50;;;;;;;4.00;3.67;;;;;;;;;;5013618;28;20415;-65
2023/05/10 01:35:26;;;;;;;4.50;3.70;;;;;;;;;;5013737;28;20403;-65
2023/05/10 01:38:10;;;;;;;5.47;4.07;;;;;;;;;;5013327;28;20036;-65
2023/05/10 01:40:40;;;;;;;5.05;4.07;;;;;;;;;;4995779;28;20484;-65
2023/05/10 01:43:10;;;;;;;9.98;4.07;;;;;;;;;;4995921;28;20022;-65
2023/05/10 01:45:39;;;;;;;4.60;3.80;;;;;;;;;;5012672;28;20566;-65
2023/05/10 01:48:11;;;;;;;4.60;4.05;;;;;;;;;;4995854;28;20464;-65
2023/05/10 01:50:39;;;;;;;3.80;3.35;;;;;;;;;;5012309;28;20379;-65
2023/05/10 01:53:08;;;;;;;6.47;3.80;;;;;;;;;;4996083;28;20042;-65
2023/05/10 01:55:46;;;;;;;4.55;3.97;;;;;;;;;;4996033;28;20041;-65
2023/05/10 01:58:20;;;;;;;4.63;4.22;;;;;;;;;;4996150;28;20026;-65
2023/05/10 02:00:47;;;;;;;4.85;3.90;;;;;;;;;;4995979;28;20061;-65
2023/05/10 02:03:13;;;;;;;4.32;3.70;;;;;;;;;;4995941;28;20029;-66
2023/05/10 02:05:39;;;;;;;4.65;3.72;;;;;;;;;;5013591;28;20480;-66
2023/05/10 02:08:08;;;;;;;6.57;3.90;;;;;;;;;;5013446;28;20033;-65
2023/05/10 02:10:36;;;;;;;7.45;3.78;;;;;;;;;;5013570;28;20034;-65
2023/05/10 02:13:02;;;;;;;5.93;4.18;;;;;;;;;;5014139;28;20036;-66
2023/05/10 02:15:28;;;;;;;4.38;3.97;;;;;;;;;;4999487;28;20388;-67
2023/05/10 02:17:55;;;;;;;4.47;4.03;;;;;;;;;;4999416;28;20018;-65
2023/05/10 02:20:20;;;;;;;4.03;3.72;;;;;;;;;;5016651;28;20049;-65
2023/05/10 02:22:49;;;;;;;5.20;3.80;;;;;;;;;;5016761;28;20061;-65
2023/05/10 02:25:15;;;;;;;5.90;4.18;;;;;;;;;;5016709;28;20542;-65
2023/05/10 02:27:43;;;;;;;4.47;4.07;;;;;;;;;;4998846;28;20025;-65
2023/05/10 02:30:10;;;;;;;4.00;3.70;;;;;;;;;;5016540;28;20034;-64
2023/05/10 02:32:36;;;;;;;4.18;3.53;;;;;;;;;;5016704;28;20026;-64
2023/05/10 02:35:02;;;;;;;5.05;3.53;;;;;;;;;;4999093;28;20370;-64
2023/05/10 02:37:28;;;;;;;4.65;4.13;;;;;;;;;;5016392;28;20022;-64
2023/05/10 02:39:55;;;;;;;5.82;3.88;;;;;;;;;;5016393;28;20526;-64
2023/05/10 02:42:23;;;;;;;4.25;3.85;;;;;;;;;;4999014;28;20021;-64
2023/05/10 02:44:50;;;;;;;6.25;3.63;;;;;;;;;;4998876;28;20133;-65
2023/05/10 02:47:16;;;;;;;5.88;3.78;;;;;;;;;;4998833;28;20034;-65
2023/05/10 02:49:42;;;;;;;5.70;3.53;;;;;;;;;;5016390;28;20534;-65
2023/05/10 02:52:08;;;;;;;6.32;3.70;;;;;;;;;;5014515;28;20034;-65
2023/05/10 02:54:39;;;;;;;4.38;3.67;;;;;;;;;;5016396;28;20115;-64
2023/05/10 02:57:05;;;;;;;4.45;3.58;;;;;;;;;;4998406;28;20085;-65
2023/05/10 02:59:32;;;;;;;4.63;4.22;;;;;;;;;;4998625;28;20407;-65
2023/05/10 03:01:58;;;;;;;4.93;3.72;;;;;;;;;;5016385;28;20045;-65
2023/05/10 03:04:23;;;;;;;4.35;3.70;;;;;;;;;;4998655;28;20030;-64
2023/05/10 03:06:50;;;;;;;3.95;3.63;;;;;;;;;;4982513;28;20037;-65
2023/05/10 03:09:16;;;;;;;4.47;3.80;;;;;;;;;;4982098;28;20120;-65
2023/05/10 03:12:00;;;;;;;4.85;3.60;;;;;;;;;;4998395;28;20361;-65
2023/05/10 03:14:39;;;;;;;3.95;3.55;;;;;;;;;;4998535;28;20042;-65
2023/05/10 03:17:14;;;;;;;3.92;3.63;;;;;;;;;;4998244;28;20030;-65
2023/05/10 03:19:49;;;;;;;3.55;3.15;;;;;;;;;;4998292;28;20388;-65
2023/05/10 03:22:20;;;;;;;4.20;3.80;;;;;;;;;;5015719;28;20037;-65
2023/05/10 03:24:45;;;;;;;;;;;;;;;;;;4997944;28;20026;-64
2023/05/10 03:27:11;;;;;;;4.25;3.88;;;;;;;;;;5015842;28;19992;-64
2023/05/10 03:29:37;;;;;;;3.40;3.20;;;;;;;;;;4998370;28;20018;-64
2023/05/10 03:32:03;;;;;;;4.30;3.55;;;;;;;;;;4997917;28;20034;-65
2023/05/10 03:34:31;;;;;;;3.55;3.25;;;;;;;;;;4998059;28;20101;-65
2023/05/10 03:36:56;;;;;;;4.93;3.53;;;;;;;;;;4997903;28;20101;-65
2023/05/10 03:39:24;;;;;;;4.80;3.53;;;;;;;;;;4981726;28;20073;-65
2023/05/10 03:41:53;;;;;;;4.45;3.47;;;;;;;;;;4997965;28;20030;-64
2023/05/10 03:44:18;;;;;;;3.78;3.13;;;;;;;;;;4998004;28;20026;-65
2023/05/10 03:46:44;;;;;;;4.18;3.45;;;;;;;;;;4981720;28;20021;-65
2023/05/10 03:49:09;;;;;;;3.47;3.17;;;;;;;;;;4997692;28;20033;-65
2023/05/10 03:51:35;;;;;;;3.78;3.35;;;;;;;;;;5015231;28;20034;-65
2023/05/10 03:54:01;;;;;;;5.50;3.50;;;;;;;;;;5015244;28;20495;-65
2023/05/10 03:56:26;;;;;;;4.18;3.40;;;;;;;;;;4996987;28;20026;-66
2023/05/10 03:58:52;;;;;;;6.30;3.70;;;;;;;;;;5013305;28;20464;-66
2023/05/10 04:01:17;;;;;;;6.97;3.47;;;;;;;;;;4996914;28;20030;-68
2023/05/10 04:03:43;;;;;;;4.30;3.90;;;;;;;;;;5015155;28;20032;-66
2023/05/10 04:06:11;;;;;;;4.30;3.35;;;;;;;;;;5014800;28;20026;-66
2023/05/10 04:08:36;;;;;;;6.25;3.85;;;;;;;;;;5010358;28;20094;-64
2023/05/10 04:11:08;;;;;;;4.47;3.50;;;;;;;;;;5013346;28;20022;-64
2023/05/10 04:13:34;;;;;;;5.88;3.60;;;;;;;;;;5016209;28;20468;-64
2023/05/10 04:16:00;;;;;;;5.63;3.50;;;;;;;;;;5034347;28;20112;-65
2023/05/10 04:18:25;;;;;;;6.93;4.00;;;;;;;;;;5034831;28;20029;-64
2023/05/10 04:20:51;;;;;;;6.55;3.38;;;;;;;;;;5032947;28;20623;-64
2023/05/10 04:23:16;;;;;;;4.20;3.63;;;;;;;;;;5033655;28;20029;-64
2023/05/10 04:25:42;;;;;;;4.88;3.90;;;;;;;;;;5015906;28;20025;-64
2023/05/10 04:28:07;;;;;;;7.55;3.85;;;;;;;;;;5033588;28;20069;-65
2023/05/10 04:30:33;;;;;;;4.35;3.97;;;;;;;;;;5033711;28;20069;-64
2023/05/10 04:32:58;;;;;;;5.05;3.60;;;;;;;;;;5034337;28;20072;-64
2023/05/10 04:35:24;;;;;;;6.32;3.55;;;;;;;;;;5034083;28;20025;-64
2023/05/10 04:37:49;;;;;;;3.60;3.30;;;;;;;;;;5033346;28;20041;-67
2023/05/10 04:40:14;;;;;;;5.82;3.80;;;;;;;;;;5033912;28;20050;-64
2023/05/10 04:42:41;;;;;;;5.10;3.40;;;;;;;;;;5033949;28;20475;-64
2023/05/10 04:45:06;;;;;;;5.82;3.67;;;;;;;;;;5033958;28;20116;-64
2023/05/10 04:47:32;;;;;;;3.85;3.50;;;;;;;;;;5030736;28;20114;-64
2023/05/10 04:49:58;;;;;;;4.75;3.25;;;;;;;;;;5014253;28;20121;-64
2023/05/10 04:52:23;;;;;;;3.08;2.55;;;;;;;;;;4996772;28;20033;-64
2023/05/10 04:54:49;;;;;;;3.03;2.83;;;;;;;;;;4996067;28;20516;-64
2023/05/10 04:57:14;;;;;;;4.53;3.20;;;;;;;;;;4996114;28;20476;-64
2023/05/10 04:59:39;;;;;;;3.55;2.90;;;;;;;;;;5013674;28;20030;-64
2023/05/10 05:02:05;;;;;;;3.70;3.25;;;;;;;;;;5013715;28;20014;-64
2023/05/10 05:04:31;;;;;;;5.53;3.15;;;;;;;;;;5013972;28;20416;-64
2023/05/10 05:06:56;;;;;;;3.30;3.00;;;;;;;;;;5013950;28;20443;-64
2023/05/10 05:09:21;;;;;;;5.38;3.10;;;;;;;;;;5013791;28;20034;-64
2023/05/10 05:11:47;;;;;;;5.20;3.60;;;;;;;;;;5013248;28;20022;-64
2023/05/10 05:14:12;;;;;;;5.60;3.13;;;;;;;;;;5014072;28;20544;-63
2023/05/10 05:16:37;;;;;;;5.13;3.60;;;;;;;;;;5013614;28;20038;-65
2023/05/10 05:19:03;;;;;;;4.10;3.78;;;;;;;;;;5013858;28;20032;-64
2023/05/10 05:21:29;;;;;;;3.28;3.00;;;;;;;;;;4996506;28;20488;-64
2023/05/10 05:23:54;;;;;;;4.53;3.10;;;;;;;;;;5013577;28;20427;-64
2023/05/10 05:26:20;;;;;;;4.05;3.10;;;;;;;;;;4995743;28;20018;-64
2023/05/10 05:28:45;;;;;;;3.67;3.20;;;;;;;;;;5014366;28;20030;-66
2023/05/10 05:31:10;;;;;;;3.30;3.00;;;;;;;;;;5013452;28;20472;-64
2023/05/10 05:33:36;;;;;;;3.95;2.97;;;;;;;;;;4995118;28;20369;-64
2023/05/10 05:36:02;;;;;;;4.82;3.20;;;;;;;;;;5013178;28;20099;-64
2023/05/10 05:38:27;;;;;;;5.03;3.28;;;;;;;;;;5013050;28;20499;-64
2023/05/10 05:40:52;;;;;;;3.38;3.08;;;;;;;;;;4995852;28;20057;-64
2023/05/10 05:43:18;;;;;;;4.55;2.97;;;;;;;;;;5012165;28;20105;-64
2023/05/10 05:45:43;;;;;;;4.30;3.15;;;;;;;;;;4995956;28;20034;-63
2023/05/10 05:48:08;;;;;;;4.18;3.10;;;;;;;;;;5014802;28;20033;-63
2023/05/10 05:50:34;;;;;;;3.70;2.92;;;;;;;;;;5000121;28;20048;-64
2023/05/10 05:52:59;;;;;;;3.40;3.05;;;;;;;;;;5017226;28;20030;-64
2023/05/10 05:55:25;;;;;;;3.15;2.90;;;;;;;;;;5017111;28;20057;-64
2023/05/10 05:57:51;;;;;;;3.38;3.08;;;;;;;;;;5017061;28;20072;-64
2023/05/10 06:00:16;;;;;;;4.03;2.70;;;;;;;;;;5017379;28;20053;-64
2023/05/10 06:02:43;;;;;;;4.75;2.90;;;;;;;;;;5017272;28;20033;-63
2023/05/10 06:05:09;;;;;;;3.35;2.92;;;;;;;;;;5016990;28;20041;-64
2023/05/10 06:07:34;;;;;;;3.38;2.65;;;;;;;;;;5017206;28;20105;-64
2023/05/10 06:09:59;;;;;;;2.88;2.67;;;;;;;;;;5017154;28;20379;-64
2023/05/10 06:12:25;;;;;;;6.32;3.25;;;;;;;;;;5017114;28;20029;-64
2023/05/10 06:14:50;;;;;;;4.30;2.78;;;;;;;;;;4999324;28;20437;-64
2023/05/10 06:17:16;;;;;;;3.08;2.75;;;;;;;;;;4999002;28;20092;-64
2023/05/10 06:19:41;;;;;;;3.13;2.83;;;;;;;;;;5016698;28;20464;-63
2023/05/10 06:22:07;;;;;;;4.38;2.78;;;;;;;;;;5016935;28;20033;-63
2023/05/10 06:24:32;;;;;;;5.30;3.10;;;;;;;;;;5016903;28;20029;-64
2023/05/10 06:26:59;;;;;;;3.38;2.80;;;;;;;;;;5017128;28;20038;-64
2023/05/10 06:29:25;;;;;;;3.83;2.83;;;;;;;;;;4998957;28;20088;-64
2023/05/10 06:31:50;;;;;;;3.85;2.60;;;;;;;;;;4998829;28;20034;-64
2023/05/10 06:34:15;;;;;;;5.40;2.90;;;;;;;;;;5016705;28;20045;-64
2023/05/10 06:36:41;;;;;;;6.40;3.05;;;;;;;;;;5016602;28;20029;-64
2023/05/10 06:39:06;;;;;;;3.20;2.60;;;;;;;;;;4998656;28;20095;-64
2023/05/10 06:41:32;;;;;;;3.70;2.50;;;;;;;;;;5016779;28;20033;-64
2023/05/10 06:43:57;;;;;;;3.67;2.55;;;;;;;;;;5016247;28;20017;-64
2023/05/10 06:46:22;;;;;;;2.58;2.28;;;;;;;;;;5016151;28;20480;-64
2023/05/10 06:48:48;;;;;;;3.58;2.53;;;;;;;;;;5016423;28;20026;-64
2023/05/10 06:51:13;;;;;;;3.97;2.83;;;;;;;;;;5016376;28;20040;-64
2023/05/10 06:53:38;;;;;;;3.08;2.40;;;;;;;;;;5016365;28;20025;-64
2023/05/10 06:56:03;;;;;;;3.28;2.70;;;;;;;;;;5015993;28;20393;-64
2023/05/10 06:58:29;;;;;;;5.18;2.47;;;;;;;;;;5016442;28;20034;-64
2023/05/10 07:01:01;;;;;;;2.70;2.50;;;;;;;;;;5014907;28;20072;-64
2023/05/10 07:03:26;;;;;;;3.80;2.80;;;;;;;;;;5016094;28;20030;-64
2023/05/10 07:05:51;;;;;;;3.13;2.85;;;;;;;;;;5015814;28;20030;-64
2023/05/10 07:08:17;;;;;;;2.50;2.10;;;;;;;;;;5016094;28;20057;-64
2023/05/10 07:10:43;;;;;;;3.25;2.30;;;;;;;;;;4998162;28;20053;-64
2023/05/10 07:13:09;;;;;;;3.95;2.28;;;;;;;;;;5015997;28;20030;-64
2023/05/10 07:15:35;;;;;;;3.20;2.60;;;;;;;;;;5015662;28;20130;-64
2023/05/10 07:18:00;;;;;;;2.33;2.13;;;;;;;;;;5015843;28;20061;-64
2023/05/10 07:20:25;;;;;;;2.35;2.25;;;;;;;;;;5015869;28;20022;-64
2023/05/10 07:22:51;;;;;;;3.47;2.55;;;;;;;;;;5015437;28;20373;-64
2023/05/10 07:25:16;;;;;;;3.78;2.67;;;;;;;;;;5015997;28;20400;-64
2023/05/10 07:27:41;;;;;;;2.70;2.50;;;;;;;;;;5015720;28;20026;-64
2023/05/10 07:30:07;;;;;;;3.83;2.33;;;;;;;;;;5015362;28;20426;-63
2023/05/10 07:32:32;;;;;;;3.85;2.22;;;;;;;;;;5015626;28;20045;-64
2023/05/10 07:34:57;;;;;;;2.70;2.50;;;;;;;;;;5015283;28;20030;-64
2023/05/10 07:37:23;;;;;;;2.85;2.20;;;;;;;;;;5015417;28;20073;-63
2023/05/10 07:39:48;;;;;;;6.88;2.70;;;;;;;;;;5015363;28;20089;-63
2023/05/10 07:42:13;;;;;;;3.58;2.85;;;;;;;;;;5015697;28;20026;-63
2023/05/10 07:44:39;;;;;;;3.33;2.58;;;;;;;;;;5015105;28;20018;-64
2023/05/10 07:47:04;;;;;;;2.10;2.00;;;;;;;;;;5015038;28;20461;-64
2023/05/10 07:49:29;;;;;;;2.08;1.95;;;;;;;;;;4997405;28;20088;-64
2023/05/10 07:51:55;;;;;;;2.40;2.10;;;;;;;;;;4997392;28;20030;-64
2023/05/10 07:54:20;;;;;;;2.42;2.20;;;;;;;;;;5015476;28;20037;-64
2023/05/10 07:56:46;;;;;;;2.88;2.30;;;;;;;;;;4998058;28;20088;-64
2023/05/10 07:59:16;;;;;;;2.35;1.98;;;;;;;;;;5015123;28;20435;-64
2023/05/10 08:01:41;;;;;;;3.35;2.30;;;;;;;;;;5015091;28;20100;-64
2023/05/10 08:04:07;;;;;;;2.17;1.90;;;;;;;;;;5015306;28;20461;-64
2023/05/10 08:06:32;;;;;;;2.25;1.92;;;;;;;;;;5014696;28;20088;-64
2023/05/10 08:08:57;;;;;;;2.90;1.90;;;;;;;;;;5014947;28;20164;-64
2023/05/10 08:11:23;;;;;;;2.15;1.95;;;;;;;;;;5014909;28;20034;-64
2023/05/10 08:13:49;;;;;;;2.85;1.90;;;;;;;;;;5014608;28;20041;-64
2023/05/10 08:16:15;;;;;;;2.00;1.90;;;;;;;;;;5014491;28;20442;-64
2023/05/10 08:18:40;;;;;;;3.28;1.50;;;;;;;;;;5015067;28;20121;-64
2023/05/10 08:21:06;;;;;;;2.38;2.20;;;;;;;;;;5015004;28;20034;-64
2023/05/10 08:23:31;;;;;;;2.05;1.75;;;;;;;;;;5014321;28;20029;-64
2023/05/10 08:25:56;;;;;;;2.58;2.38;;;;;;;;;;5014628;28;20388;-64
2023/05/10 08:28:22;;;;;;;1.60;1.50;;;;;;;;;;5014502;28;20033;-64
2023/05/10 08:30:49;;;;;;;2.63;2.42;;;;;;;;;;5014315;28;20029;-64
2023/05/10 08:33:14;;;;;;;2.30;1.88;;;;;;;;;;5014555;28;20029;-64
2023/05/10 08:35:39;;;;;;;3.30;2.40;;;;;;;;;;5014788;28;20034;-64
2023/05/10 08:38:05;;;;;;;2.50;2.30;;;;;;;;;;5014717;28;20114;-64
2023/05/10 08:40:30;;;;;;;2.28;1.92;;;;;;;;;;5014088;28;20042;-64
2023/05/10 08:43:03;;;;;;;2.55;1.67;;;;;;;;;;5014156;28;20037;-64
2023/05/10 08:45:31;;;;;;;1.77;1.67;;;;;;;;;;5014098;28;20041;-64
2023/05/10 08:47:57;;;;;;;1.83;1.60;;;;;;;;;;5014332;28;20101;-64
2023/05/10 08:50:24;;;;;;;2.50;2.30;;;;;;;;;;5014082;28;20077;-64
2023/05/10 08:52:52;;;;;;;2.15;1.95;;;;;;;;;;5013596;28;20042;-64
2023/05/10 08:55:18;;;;;;;3.33;1.80;;;;;;;;;;4997031;28;20081;-65
2023/05/10 08:57:43;;;;;;;2.25;2.08;;;;;;;;;;5013903;28;20424;-64
2023/05/10 09:00:09;;;;;;;2.10;1.88;;;;;;;;;;5013970;28;20072;-64
2023/05/10 09:02:35;;;;;;;4.47;2.75;;;;;;;;;;5014496;28;20359;-64
2023/05/10 09:05:00;;;;;;;2.38;2.17;;;;;;;;;;5013928;28;20460;-64
2023/05/10 09:07:26;;;;;;;2.63;2.35;;;;;;;;;;5013863;28;20034;-64
2023/05/10 09:09:52;;;;;;;2.50;2.00;;;;;;;;;;5013861;28;20034;-64
2023/05/10 09:12:17;;;;;;;2.20;2.10;;;;;;;;;;5014147;28;20030;-64
2023/05/10 09:14:44;;;;;;;4.45;2.15;;;;;;;;;;5013808;28;20615;-64
2023/05/10 09:17:09;;;;;;;2.10;1.90;;;;;;;;;;5013980;28;20361;-64
2023/05/10 09:19:35;;;;;;;1.73;1.63;;;;;;;;;;5013921;28;20029;-64
2023/05/10 09:22:01;;;;;;;2.20;1.77;;;;;;;;;;5013754;28;20056;-64
2023/05/10 09:24:29;;;;;;;2.30;1.50;;;;;;;;;;5017038;28;20030;-64
2023/05/10 09:26:56;;;;;;;2.10;1.90;;;;;;;;;;5018255;28;20364;-64
2023/05/10 09:29:21;;;;;;;1.77;1.67;;;;;;;;;;5017891;28;20034;-64
2023/05/10 09:31:48;;;;;;;2.85;1.80;;;;;;;;;;5017487;28;20045;-64
2023/05/10 09:34:20;;;;;;;2.28;2.00;;;;;;;;;;5017529;28;20041;-64
2023/05/10 09:36:53;;;;;;;1.80;1.70;;;;;;;;;;5017418;28;20040;-64
2023/05/10 09:39:18;;;;;;;2.35;2.00;;;;;;;;;;5017491;28;20481;-64
2023/05/10 09:41:43;;;;;;;2.28;2.08;;;;;;;;;;5017974;28;20029;-64
2023/05/10 09:44:09;;;;;;;2.40;1.88;;;;;;;;;;5017372;28;20370;-64
2023/05/10 09:46:37;;;;;;;2.83;2.60;;;;;;;;;;5017334;28;20537;-64
2023/05/10 09:49:03;;;;;;;2.20;2.00;;;;;;;;;;5017587;28;20044;-64
2023/05/10 09:51:29;;;;;;;1.95;1.85;;;;;;;;;;5017560;28;20025;-64
2023/05/10 09:54:09;;;;;;;1.95;1.60;;;;;;;;;;4999502;28;20038;-63
2023/05/10 09:56:36;;;;;;;3.17;2.13;;;;;;;;;;5017608;28;20033;-64
2023/05/10 09:59:05;;;;;;;3.17;1.95;;;;;;;;;;5017148;28;20379;-64
2023/05/10 10:01:30;;;;;;;1.77;1.67;;;;;;;;;;5017274;28;20469;-64
2023/05/10 10:03:57;;;;;;;8.15;1.95;;;;;;;;;;5017006;28;20079;-64
2023/05/10 10:06:23;;;;;;;2.05;1.95;;;;;;;;;;5017261;28;20108;-64
2023/05/10 10:08:48;;;;;;;1.38;1.27;;;;;;;;;;5017224;28;20054;-64
2023/05/10 10:11:13;;;;;;;4.10;1.77;;;;;;;;;;5017138;28;20495;-64
2023/05/10 10:13:39;;;;;;;2.88;1.90;;;;;;;;;;5017009;28;20025;-64
2023/05/10 10:16:04;;;;;;;2.05;1.92;;;;;;;;;;5017061;28;20030;-64
2023/05/10 10:18:30;;;;;;;2.17;1.80;;;;;;;;;;5016817;28;20464;-64
2023/05/10 10:20:55;;;;;;;2.45;2.35;;;;;;;;;;5016684;28;20038;-64
2023/05/10 10:23:21;;;;;;;4.47;3.30;;;;;;;;;;5016506;28;20029;-64
2023/05/10 10:25:48;;;;;;;3.35;2.20;;;;;;;;;;5016843;28;20036;-64
2023/05/10 10:28:21;;;;;;;3.10;2.80;;;;;;;;;;5016574;28;20045;-64
2023/05/10 10:30:48;;;;;;;3.17;2.47;;;;;;;;;;5016067;28;20040;-64
2023/05/10 10:33:13;;;;;;;2.50;2.30;;;;;;;;;;5016738;28;20041;-64
2023/05/10 10:35:39;;;;;;;2.47;2.00;;;;;;;;;;5016312;28;20092;-64
2023/05/10 10:38:07;;;;;;;3.03;2.47;;;;;;;;;;4998701;28;20113;-64
2023/05/10 10:40:33;;;;;;;2.53;2.33;;;;;;;;;;5016183;28;20049;-64
2023/05/10 10:43:18;;;;;;;4.75;2.72;;;;;;;;;;5014954;28;20026;-64
2023/05/10 10:45:47;;;;;;;2.63;1.83;;;;;;;;;;5016326;28;20038;-63
2023/05/10 10:48:22;;;;;;;2.67;1.77;;;;;;;;;;5014985;28;20034;-64
2023/05/10 10:50:55;;;;;;;2.45;2.25;;;;;;;;;;5016181;28;20033;-64
2023/05/10 10:53:20;;;;;;;2.60;1.95;;;;;;;;;;5016418;28;20530;-64
2023/05/10 10:55:47;;;;;;;2.60;1.67;;;;;;;;;;5016049;28;20030;-63
2023/05/10 10:58:28;;;;;;;3.03;1.80;;;;;;;;;;5015945;28;20460;-64
2023/05/10 11:01:08;;;;;;;3.58;2.00;;;;;;;;;;5016378;28;20109;-64
2023/05/10 11:03:33;;;;;;;2.95;2.60;;;;;;;;;;5016184;28;20038;-64
2023/05/10 11:06:01;;;;;;;2.70;2.50;;;;;;;;;;4998440;28;20038;-64
2023/05/10 11:08:30;;;;;;;2.65;1.75;;;;;;;;;;5016100;28;20037;-64
2023/05/10 11:10:58;;;;;;;2.72;1.77;;;;;;;;;;4998222;28;20068;-64
2023/05/10 11:13:42;;;;;;;2.72;1.90;;;;;;;;;;5016022;28;20115;-64
2023/05/10 11:16:11;;;;;;;2.65;2.10;;;;;;;;;;5014942;28;20034;-64
2023/05/10 11:18:37;;;;;;;1.70;1.60;;;;;;;;;;5015854;28;20439;-64
2023/05/10 11:21:04;;;;;;;4.55;2.15;;;;;;;;;;4998067;28;20118;-64
2023/05/10 11:23:30;;;;;;;2.47;1.80;;;;;;;;;;5015821;28;20022;-64
2023/05/10 11:25:56;;;;;;;2.10;2.00;;;;;;;;;;5015738;28;20383;-64
2023/05/10 11:28:21;;;;;;;1.75;1.48;;;;;;;;;;5015467;28;20030;-64
2023/05/10 11:30:47;;;;;;;2.00;1.90;;;;;;;;;;5015555;28;20100;-64
2023/05/10 11:33:19;;;;;;;3.97;2.03;;;;;;;;;;5015351;28;20389;-64
2023/05/10 11:35:44;;;;;;;2.75;2.17;;;;;;;;;;5015311;28;20038;-64
2023/05/10 11:38:10;;;;;;;1.95;1.80;;;;;;;;;;5015356;28;20030;-64
2023/05/10 11:40:36;;;;;;;3.58;1.60;;;;;;;;;;5014908;28;20395;-64
2023/05/10 11:43:02;;;;;;;4.03;1.90;;;;;;;;;;5015447;28;20113;-64
2023/05/10 11:45:29;;;;;;;2.03;1.92;;;;;;;;;;4997510;28;20026;-65
2023/05/10 11:47:55;;;;;;;3.72;1.85;;;;;;;;;;5013844;28;20029;-64
2023/05/10 11:50:20;;;;;;;2.72;1.60;;;;;;;;;;4997500;28;20038;-64
2023/05/10 11:52:50;;;;;;;1.70;1.23;;;;;;;;;;4997788;28;20044;-64
2023/05/10 11:55:15;;;;;;;3.88;2.10;;;;;;;;;;5014942;28;20044;-64
2023/05/10 11:57:42;;;;;;;1.50;1.40;;;;;;;;;;5014843;28;20034;-64
2023/05/10 12:00:07;;;;;;;1.70;1.60;;;;;;;;;;5014841;28;20037;-64
2023/05/10 12:02:33;;;;;;;2.00;1.50;;;;;;;;;;5015129;28;20034;-64
2023/05/10 12:04:58;;;;;;;1.80;1.70;;;;;;;;;;5014802;28;20065;-64
2023/05/10 12:07:25;;;;;;;3.75;1.70;;;;;;;;;;5014956;28;20499;-64
2023/05/10 12:10:07;;;;;;;2.00;1.80;;;;;;;;;;5013476;28;20488;-64
2023/05/10 12:12:39;;;;;;;1.50;1.40;;;;;;;;;;5014676;28;20030;-64
2023/05/10 12:15:06;;;;;;;3.63;1.75;;;;;;;;;;5013290;28;20465;-64
2023/05/10 12:17:31;;;;;;;1.80;1.70;;;;;;;;;;5014809;28;20034;-64
2023/05/10 12:20:21;;;;;;;2.25;2.05;;;;;;;;;;5014527;28;20025;-64
2023/05/10 12:22:56;;;;;;;2.83;2.17;;;;;;;;;;5006577;28;20046;-64
2023/05/10 12:25:23;;;;;;;1.75;1.65;;;;;;;;;;5014730;28;20022;-64
2023/05/10 12:27:50;;;;;;;1.95;1.55;;;;;;;;;;4997176;28;20502;-64
2023/05/10 12:30:22;;;;;;;1.80;1.70;;;;;;;;;;5014398;28;20488;-64
2023/05/10 12:32:48;;;;;;;1.92;1.83;;;;;;;;;;5014877;28;20423;-64
2023/05/10 12:35:13;;;;;;;1.70;1.60;;;;;;;;;;4996672;28;20120;-64
2023/05/10 12:37:39;;;;;;;6.03;2.03;;;;;;;;;;4996906;28;20042;-64
2023/05/10 12:40:08;;;;;;;1.88;1.77;;;;;;;;;;5014060;28;20048;-64
2023/05/10 12:42:33;;;;;;;1.80;1.70;;;;;;;;;;5014458;28;20041;-64
2023/05/10 12:44:58;;;;;;;2.17;1.92;;;;;;;;;;4996595;28;20030;-64
2023/05/10 12:47:24;;;;;;;1.83;1.70;;;;;;;;;;5014119;28;20034;-64
2023/05/10 12:49:49;;;;;;;4.22;1.80;;;;;;;;;;5012751;28;20030;-64
2023/05/10 12:52:14;;;;;;;1.65;1.55;;;;;;;;;;5012808;28;20045;-64
2023/05/10 12:54:41;;;;;;;2.65;1.90;;;;;;;;;;4997479;28;20028;-64
2023/05/10 12:57:06;;;;;;;2.95;1.80;;;;;;;;;;5013755;28;20033;-64
2023/05/10 12:59:32;;;;;;;1.77;1.67;;;;;;;;;;5013641;28;20032;-64
2023/05/10 13:01:57;;;;;;;1.80;1.67;;;;;;;;;;5014230;28;20026;-64
2023/05/10 13:04:23;;;;;;;3.00;1.80;;;;;;;;;;5014232;28;20421;-64
2023/05/10 13:06:48;;;;;;;1.77;1.67;;;;;;;;;;5014197;28;20038;-64
2023/05/10 13:09:13;;;;;;;1.80;1.70;;;;;;;;;;5013852;28;20033;-64
2023/05/10 13:11:39;;;;;;;2.38;1.90;;;;;;;;;;5013861;28;20030;-64
2023/05/10 13:14:04;;;;;;;2.35;1.70;;;;;;;;;;5013722;28;20036;-64
2023/05/10 13:16:30;;;;;;;1.88;1.73;;;;;;;;;;5013504;28;20491;-64
2023/05/10 13:18:55;;;;;;;2.97;1.48;;;;;;;;;;5012585;28;20030;-67
2023/05/10 13:21:21;;;;;;;2.05;1.60;;;;;;;;;;5012686;28;20459;-65
2023/05/10 13:23:47;;;;;;;1.90;1.70;;;;;;;;;;5011894;28;20029;-66
2023/05/10 13:26:13;;;;;;;2.35;1.63;;;;;;;;;;5004218;28;20468;-58
2023/05/10 13:28:38;;;;;;;2.03;1.70;;;;;;;;;;4999150;28;20077;-58
2023/05/10 13:31:04;;;;;;;2.85;1.75;;;;;;;;;;5010798;28;20351;-58
2023/05/10 13:33:30;;;;;;;3.90;1.90;;;;;;;;;;5012965;28;20480;-58
2023/05/10 13:35:55;;;;;;;1.70;1.60;;;;;;;;;;5012321;28;20057;-65
2023/05/10 13:38:20;;;;;;;1.88;1.77;;;;;;;;;;5012426;28;20428;-65
2023/05/10 13:40:46;;;;;;;1.48;1.38;;;;;;;;;;5012822;28;20125;-65
2023/05/10 13:43:11;;;;;;;2.67;2.47;;;;;;;;;;5014042;28;20025;-65
2023/05/10 13:45:37;;;;;;;2.00;1.90;;;;;;;;;;5013474;28;20018;-65
2023/05/10 13:48:02;;;;;;;2.78;1.63;;;;;;;;;;5013811;28;20511;-65
2023/05/10 13:50:27;;;;;;;2.40;1.73;;;;;;;;;;5011579;28;20353;-65
2023/05/10 13:52:53;;;;;;;2.03;1.90;;;;;;;;;;5011086;28;20026;-58
2023/05/10 13:55:18;;;;;;;2.15;1.88;;;;;;;;;;5004229;28;20483;-58
2023/05/10 13:57:43;;;;;;;2.08;1.80;;;;;;;;;;5019200;28;20105;-58
2023/05/10 14:00:09;;;;;;;2.72;2.08;;;;;;;;;;5021553;28;20427;-64
2023/05/10 14:02:35;;;;;;;2.88;1.92;;;;;;;;;;5022280;28;20175;-65
2023/05/10 14:05:00;;;;;;;2.22;1.63;;;;;;;;;;5033021;28;20029;-65
2023/05/10 14:07:25;;;;;;;2.00;1.90;;;;;;;;;;5032663;28;20431;-65
2023/05/10 14:09:51;;;;;;;1.70;1.60;;;;;;;;;;5035369;28;20021;-65
2023/05/10 14:12:16;;;;;;;2.33;1.80;;;;;;;;;;5035715;28;20370;-65
2023/05/10 14:14:41;;;;;;;2.15;1.80;;;;;;;;;;5036877;28;20066;-65
2023/05/10 14:17:07;;;;;;;2.05;1.88;;;;;;;;;;5018832;28;20037;-65
2023/05/10 14:19:33;;;;;;;3.53;1.90;;;;;;;;;;5036833;28;20032;-65
2023/05/10 14:21:59;;;;;;;2.13;1.92;;;;;;;;;;5036196;28;20034;-58
2023/05/10 14:24:25;;;;;;;3.45;2.15;;;;;;;;;;5016836;28;20025;-58
2023/05/10 14:26:53;;;;;;;2.70;1.95;;;;;;;;;;5034792;28;20072;-58
2023/05/10 14:29:18;;;;;;;2.30;2.10;;;;;;;;;;5035688;28;20044;-58
2023/05/10 14:31:44;;;;;;;3.72;2.58;;;;;;;;;;5035833;28;20037;-57
2023/05/10 14:34:09;;;;;;;3.13;1.95;;;;;;;;;;5035785;28;20033;-58
2023/05/10 14:36:35;;;;;;;1.83;1.73;;;;;;;;;;5035688;28;20028;-58
2023/05/10 14:39:00;;;;;;;3.72;1.95;;;;;;;;;;5018312;28;20034;-58
2023/05/10 14:41:26;;;;;;;2.00;1.50;;;;;;;;;;5036429;28;20041;-58